Time;durP1;ratioP1;P1;durP2;ratioP2;P2;SDS_P1;SDS_P2;PMS_P1;PMS_P2;Temp;Humidity;BMP_temperature;BMP_pressure;BME280_temperature;BME280_humidity;BME280_pressure;Samples;Min_cycle;Max_cycle;Signal;HPM_P1;HPM_P2
2022/05/07 00:00:53;;;;;;;10.60;4.57;;;16.10;56.50;;;;;;4965074;28;20190;-75
2022/05/07 00:03:22;;;;;;;7.07;4.10;;;16.10;56.50;;;;;;4957864;28;20199;-76
2022/05/07 00:05:51;;;;;;;7.50;4.30;;;16.10;56.80;;;;;;4959900;28;20197;-76
2022/05/07 00:08:21;;;;;;;8.77;4.47;;;16.00;56.80;;;;;;4957133;28;20230;-75
2022/05/07 00:10:49;;;;;;;9.83;4.17;;;16.00;56.90;;;;;;4962455;28;20407;-75
2022/05/07 00:13:18;;;;;;;8.83;4.13;;;15.90;57.00;;;;;;4963607;28;20198;-76
2022/05/07 00:18:30;;;;;;;10.50;5.50;;;15.90;57.30;;;;;;4958678;28;20190;-76
2022/05/07 00:20:58;;;;;;;10.70;5.10;;;15.90;57.60;;;;;;4964489;28;20228;-75
2022/05/07 00:23:29;;;;;;;14.60;5.20;;;15.80;57.90;;;;;;4959114;28;20193;-76
2022/05/07 00:25:58;;;;;;;12.03;5.13;;;15.80;58.50;;;;;;4964208;28;20194;-76
2022/05/07 00:28:26;;;;;;;14.87;5.30;;;15.70;58.80;;;;;;4963257;28;20238;-76
2022/05/07 00:30:55;;;;;;;10.77;5.33;;;15.70;59.20;;;;;;4961157;28;20193;-76
2022/05/07 00:33:23;;;;;;;7.57;4.63;;;15.60;59.20;;;;;;4963416;28;20209;-76
2022/05/07 00:35:52;;;;;;;11.67;5.20;;;15.60;59.30;;;;;;4960719;28;20561;-75
2022/05/07 00:38:20;;;;;;;7.80;3.97;;;15.50;59.80;;;;;;4955789;28;20675;-76
2022/05/07 00:40:50;;;;;;;9.57;5.00;;;15.50;59.80;;;;;;4961605;28;20198;-75
2022/05/07 00:43:18;;;;;;;12.70;5.10;;;15.40;59.70;;;;;;4963277;28;20202;-75
2022/05/07 00:45:47;;;;;;;9.30;4.47;;;15.30;59.90;;;;;;4955522;28;20193;-75
2022/05/07 00:48:17;;;;;;;8.57;4.83;;;15.30;60.10;;;;;;4958976;28;20659;-75
2022/05/07 00:53:33;;;;;;;7.33;4.30;;;15.20;61.00;;;;;;4962232;28;20220;-76
2022/05/07 00:56:04;;;;;;;10.97;5.00;;;15.10;61.50;;;;;;4962845;28;20206;-75
2022/05/07 00:58:32;;;;;;;9.67;5.30;;;15.00;61.70;;;;;;4956008;28;20198;-76
2022/05/07 01:01:00;;;;;;;8.47;4.50;;;15.00;62.20;;;;;;4962161;28;20201;-75
2022/05/07 01:03:29;;;;;;;11.87;5.53;;;14.90;62.80;;;;;;4963089;28;20204;-75
2022/05/07 01:05:59;;;;;;;10.53;4.93;;;14.80;63.00;;;;;;4961456;28;20770;-75
2022/05/07 01:08:30;;;;;;;14.65;5.25;;;14.80;63.90;;;;;;4960449;28;20478;-75
2022/05/07 01:10:58;;;;;;;8.20;4.83;;;14.70;64.60;;;;;;4962476;28;20197;-76
2022/05/07 01:13:29;;;;;;;10.30;5.17;;;14.60;65.30;;;;;;4958799;28;20203;-76
2022/05/07 01:15:58;;;;;;;9.03;5.07;;;14.50;65.00;;;;;;4954845;28;20198;-75
2022/05/07 01:18:26;;;;;;;8.03;4.87;;;14.50;65.10;;;;;;4959591;28;20196;-75
2022/05/07 01:20:57;;;;;;;10.07;4.83;;;14.50;65.30;;;;;;4955081;28;20194;-75
2022/05/07 01:23:28;;;;;;;8.63;4.87;;;14.40;65.40;;;;;;4959696;28;20198;-76
2022/05/07 01:25:59;;;;;;;11.07;4.83;;;14.40;65.50;;;;;;4963447;28;20190;-75
2022/05/07 01:28:28;;;;;;;10.27;4.97;;;14.30;65.30;;;;;;4953527;28;20194;-76
2022/05/07 01:30:57;;;;;;;10.03;4.57;;;14.30;66.00;;;;;;4961565;28;20271;-75
2022/05/07 01:33:25;;;;;;;11.73;4.83;;;14.30;66.20;;;;;;4954373;28;20190;-76
2022/05/07 01:35:53;;;;;;;11.67;5.07;;;14.20;66.00;;;;;;4964490;28;20217;-76
2022/05/07 01:38:22;;;;;;;11.60;5.10;;;14.20;66.40;;;;;;4962657;28;20209;-76
2022/05/07 01:40:51;;;;;;;8.53;4.67;;;14.20;66.60;;;;;;4962942;28;20186;-75
2022/05/07 01:43:20;;;;;;;9.03;4.60;;;14.10;67.00;;;;;;4962917;28;20202;-75
2022/05/07 01:45:48;;;;;;;9.20;4.87;;;14.10;67.40;;;;;;4963720;28;20198;-75
2022/05/07 01:48:15;;;;;;;10.40;5.30;;;14.00;67.70;;;;;;4963033;28;20190;-77
2022/05/07 01:50:45;;;;;;;9.07;5.20;;;14.00;68.20;;;;;;4960495;28;20236;-76
2022/05/07 01:53:14;;;;;;;8.97;4.87;;;13.90;67.80;;;;;;4962439;28;20321;-75
2022/05/07 01:55:43;;;;;;;8.60;5.17;;;13.90;67.90;;;;;;4966788;28;20675;-75
2022/05/07 01:58:13;;;;;;;10.47;5.10;;;13.90;67.90;;;;;;4972079;28;20268;-76
2022/05/07 02:00:42;;;;;;;10.40;5.50;;;13.80;68.00;;;;;;4967858;28;20194;-76
2022/05/07 02:03:10;;;;;;;9.67;5.33;;;13.80;68.50;;;;;;4964023;28;20193;-77
2022/05/07 02:05:39;;;;;;;9.33;5.07;;;13.80;68.50;;;;;;4960807;28;20292;-76
2022/05/07 02:08:07;;;;;;;9.33;4.53;;;13.80;68.50;;;;;;4961911;28;20860;-76
2022/05/07 02:10:36;;;;;;;13.57;5.50;;;13.70;68.70;;;;;;4964186;28;20225;-75
2022/05/07 02:13:04;;;;;;;9.20;4.97;;;13.70;68.60;;;;;;4956753;28;20205;-77
2022/05/07 02:15:35;;;;;;;7.97;4.73;;;13.60;69.20;;;;;;4959454;28;20217;-76
2022/05/07 02:18:03;;;;;;;12.80;5.27;;;13.60;69.20;;;;;;4957306;28;20314;-75
2022/05/07 02:20:32;;;;;;;8.73;4.70;;;13.60;69.90;;;;;;4960912;28;20268;-75
2022/05/07 02:23:00;;;;;;;11.17;5.30;;;13.50;70.50;;;;;;4958301;28;20201;-76
2022/05/07 02:25:28;;;;;;;11.50;4.67;;;13.50;70.30;;;;;;4959553;28;20205;-75
2022/05/07 02:27:57;;;;;;;10.37;4.43;;;13.40;70.00;;;;;;4958539;28;20648;-75
2022/05/07 02:30:25;;;;;;;12.57;4.67;;;13.40;69.90;;;;;;4958437;28;20718;-75
2022/05/07 02:32:55;;;;;;;11.87;4.90;;;13.40;69.70;;;;;;4963586;28;20198;-75
2022/05/07 02:35:25;;;;;;;12.17;4.47;;;13.40;69.80;;;;;;4959319;28;20208;-75
2022/05/07 02:37:54;;;;;;;11.53;5.37;;;13.40;70.00;;;;;;4957509;28;20827;-75
2022/05/07 02:40:22;;;;;;;12.13;7.00;;;13.30;70.00;;;;;;4963162;28;20787;-75
2022/05/07 02:42:49;;;;;;;10.60;5.30;;;13.30;69.90;;;;;;4957754;28;20221;-75
2022/05/07 02:45:18;;;;;;;7.57;4.97;;;13.30;70.40;;;;;;4960120;28;20193;-75
2022/05/07 02:47:46;;;;;;;9.60;4.93;;;13.20;70.50;;;;;;4956077;28;20194;-75
2022/05/07 02:50:16;;;;;;;10.27;5.63;;;13.30;70.60;;;;;;4957615;28;20221;-75
2022/05/07 02:52:44;;;;;;;10.23;5.00;;;13.20;70.70;;;;;;4961085;28;20197;-75
2022/05/07 02:55:13;;;;;;;11.60;4.37;;;13.20;70.60;;;;;;4953826;28;20204;-75
2022/05/07 02:57:41;;;;;;;13.07;4.57;;;13.20;70.80;;;;;;4955041;28;20203;-74
2022/05/07 03:00:11;;;;;;;10.37;4.60;;;13.20;70.60;;;;;;4956994;28;20206;-75
2022/05/07 03:02:39;;;;;;;10.10;4.47;;;13.10;70.50;;;;;;4961321;28;20800;-75
2022/05/07 03:05:08;;;;;;;8.37;4.57;;;13.10;70.60;;;;;;4962436;28;20201;-75
2022/05/07 03:07:37;;;;;;;7.97;4.07;;;13.10;70.80;;;;;;4950290;28;20202;-75
2022/05/07 03:10:06;;;;;;;9.20;4.53;;;13.10;70.80;;;;;;4956331;28;20221;-75
2022/05/07 03:12:35;;;;;;;9.53;4.83;;;13.10;70.60;;;;;;4953803;28;20194;-75
2022/05/07 03:15:04;;;;;;;8.33;4.30;;;13.10;70.80;;;;;;4959473;28;20198;-75
2022/05/07 03:17:34;;;;;;;8.23;4.40;;;13.10;70.60;;;;;;4958744;28;20224;-75
2022/05/07 03:20:08;;;;;;;9.27;4.03;;;13.10;70.90;;;;;;4958366;28;20189;-76
2022/05/07 03:22:38;;;;;;;9.07;4.33;;;13.00;70.80;;;;;;4959944;28;20201;-75
2022/05/07 03:25:08;;;;;;;10.52;5.03;;;13.00;70.90;;;;;;4955989;28;20447;-75
2022/05/07 03:27:36;;;;;;;7.23;4.13;;;13.00;71.20;;;;;;4959874;28;20190;-75
2022/05/07 03:30:06;;;;;;;8.67;4.33;;;13.00;71.30;;;;;;4958793;28;20230;-75
2022/05/07 03:32:35;;;;;;;9.17;4.37;;;13.00;71.20;;;;;;4954174;28;20199;-75
2022/05/07 03:35:04;;;;;;;13.97;4.97;;;13.10;71.60;;;;;;4958167;28;20198;-75
2022/05/07 03:37:32;;;;;;;10.17;5.03;;;13.10;71.30;;;;;;4960226;28;20190;-74
2022/05/07 03:40:02;;;;;;;13.17;4.83;;;13.10;71.20;;;;;;4960293;28;20198;-75
2022/05/07 03:42:33;;;;;;;15.23;5.07;;;13.10;71.30;;;;;;4956347;28;20223;-75
2022/05/07 03:45:02;;;;;;;12.47;5.43;;;13.10;71.20;;;;;;4954626;28;20256;-74
2022/05/07 03:47:30;;;;;;;10.13;5.03;;;13.20;71.20;;;;;;4957827;28;20194;-75
2022/05/07 03:49:59;;;;;;;10.40;4.67;;;13.20;70.90;;;;;;4954181;28;20199;-76
2022/05/07 03:55:16;;;;;;;14.80;4.30;;;13.30;70.70;;;;;;4962157;28;20225;-75
2022/05/07 03:57:44;;;;;;;15.20;4.37;;;13.40;70.60;;;;;;4959086;28;20199;-75
2022/05/07 04:00:13;;;;;;;8.47;4.57;;;13.40;70.60;;;;;;4961519;28;20201;-75
2022/05/07 04:02:42;;;;;;;19.00;5.10;;;13.40;71.10;;;;;;4961049;28;20205;-75
2022/05/07 04:05:10;;;;;;;9.17;4.30;;;13.50;71.00;;;;;;4964374;28;20194;-75
2022/05/07 04:07:38;;;;;;;10.03;4.87;;;13.60;70.80;;;;;;4959719;28;20892;-75
2022/05/07 04:10:08;;;;;;;11.17;4.30;;;13.60;70.70;;;;;;4963682;28;20197;-75
2022/05/07 04:12:38;;;;;;;7.37;3.87;;;13.70;70.60;;;;;;4962531;28;20536;-75
2022/05/07 04:15:07;;;;;;;8.30;4.17;;;13.70;70.40;;;;;;4966810;28;20205;-74
2022/05/07 04:17:36;;;;;;;8.40;4.20;;;13.80;70.40;;;;;;4957298;28;20237;-75
2022/05/07 04:20:05;;;;;;;8.80;4.07;;;13.90;70.10;;;;;;4964437;28;20233;-75
2022/05/07 04:22:34;;;;;;;8.60;4.37;;;13.90;69.80;;;;;;4964729;28;20201;-76
2022/05/07 04:25:02;;;;;;;7.87;4.27;;;13.90;69.50;;;;;;4964085;28;20205;-76
2022/05/07 04:27:30;;;;;;;8.70;4.03;;;14.00;69.30;;;;;;4961791;28;20282;-75
2022/05/07 04:30:01;;;;;;;13.33;4.97;;;14.10;69.20;;;;;;4965999;28;20200;-76
2022/05/07 04:32:30;;;;;;;10.10;3.90;;;14.10;68.90;;;;;;4963380;28;20218;-75
2022/05/07 04:34:58;;;;;;;7.77;4.00;;;14.10;68.80;;;;;;4962561;28;20206;-76
2022/05/07 04:37:26;;;;;;;9.47;4.30;;;14.20;68.60;;;;;;4965806;28;20194;-75
2022/05/07 04:39:55;;;;;;;9.00;4.53;;;14.10;68.30;;;;;;4961471;28;20703;-77
2022/05/07 04:42:23;;;;;;;10.07;4.83;;;14.20;68.20;;;;;;4959495;28;20648;-75
2022/05/07 04:44:52;;;;;;;12.67;4.90;;;14.20;68.20;;;;;;4962217;28;20196;-75
2022/05/07 04:47:21;;;;;;;10.77;4.90;;;14.20;68.30;;;;;;4964195;28;20206;-74
2022/05/07 04:49:50;;;;;;;9.13;4.50;;;14.20;68.20;;;;;;4961554;28;20201;-75
2022/05/07 04:52:18;;;;;;;8.47;4.57;;;14.30;68.20;;;;;;4965181;28;20225;-75
2022/05/07 04:54:46;;;;;;;9.53;4.50;;;14.30;68.10;;;;;;4957600;28;20190;-74
2022/05/07 04:57:17;;;;;;;10.47;4.97;;;14.30;68.00;;;;;;4948374;28;20289;-75
2022/05/07 04:59:45;;;;;;;7.70;4.97;;;14.30;67.80;;;;;;4946735;28;20203;-75
2022/05/07 05:02:14;;;;;;;10.53;5.43;;;14.40;67.80;;;;;;4956866;28;20210;-75
2022/05/07 05:04:44;;;;;;;9.10;4.33;;;14.40;67.70;;;;;;4959880;28;20198;-76
2022/05/07 05:07:12;;;;;;;9.90;5.20;;;14.40;67.60;;;;;;4964264;28;20205;-75
2022/05/07 05:09:40;;;;;;;8.17;5.00;;;14.50;67.60;;;;;;4962785;28;20198;-75
2022/05/07 05:12:09;;;;;;;7.53;4.90;;;14.50;67.60;;;;;;4961049;28;20229;-76
2022/05/07 05:17:23;;;;;;;7.83;4.83;;;14.60;67.40;;;;;;4963469;28;20655;-76
2022/05/07 05:19:53;;;;;;;11.40;5.43;;;14.70;67.50;;;;;;4965440;28;20534;-74
2022/05/07 05:22:22;;;;;;;11.83;5.30;;;14.70;67.70;;;;;;4963788;28;20228;-75
2022/05/07 05:24:51;;;;;;;10.87;4.43;;;14.70;67.20;;;;;;4960754;28;20194;-75
2022/05/07 05:27:19;;;;;;;7.87;4.67;;;14.80;67.20;;;;;;4961845;28;20194;-76
2022/05/07 05:29:47;;;;;;;7.70;4.70;;;14.90;67.10;;;;;;4965190;28;20197;-75
2022/05/07 05:32:18;;;;;;;11.63;4.80;;;14.90;66.90;;;;;;4963213;28;20792;-74
2022/05/07 05:34:47;;;;;;;11.73;4.90;;;15.00;66.50;;;;;;4964454;28;20339;-74
2022/05/07 05:37:17;;;;;;;10.67;5.20;;;15.10;66.20;;;;;;4964349;28;20213;-74
2022/05/07 05:39:46;;;;;;;9.13;4.57;;;15.10;66.20;;;;;;4961540;28;20205;-76
2022/05/07 05:42:14;;;;;;;11.93;5.13;;;15.30;66.30;;;;;;4965571;28;20193;-75
2022/05/07 05:44:43;;;;;;;10.33;4.93;;;15.40;66.30;;;;;;4966224;28;20200;-75
2022/05/07 05:47:11;;;;;;;9.87;4.80;;;15.50;66.30;;;;;;4964889;28;20202;-76
2022/05/07 05:49:40;;;;;;;11.47;4.67;;;15.60;66.20;;;;;;4962285;28;20193;-76
2022/05/07 05:52:09;;;;;;;12.90;4.60;;;15.70;66.00;;;;;;4963999;28;20228;-73
2022/05/07 05:54:39;;;;;;;12.77;5.13;;;15.90;65.80;;;;;;4957656;28;20205;-75
2022/05/07 05:57:12;;;;;;;10.87;5.37;;;16.00;65.50;;;;;;4963892;28;20196;-74
2022/05/07 05:59:40;;;;;;;13.17;4.80;;;16.10;65.40;;;;;;4963583;28;20838;-75
2022/05/07 06:02:09;;;;;;;9.20;4.60;;;16.20;64.40;;;;;;4962954;28;20210;-76
2022/05/07 06:04:37;;;;;;;13.07;5.10;;;16.30;64.20;;;;;;4964552;28;20248;-74
2022/05/07 06:07:05;;;;;;;7.87;4.43;;;16.40;64.10;;;;;;4963406;28;20695;-74
2022/05/07 06:09:34;;;;;;;10.97;4.20;;;16.60;64.00;;;;;;4964738;28;20340;-75
2022/05/07 06:12:04;;;;;;;5.93;3.60;;;16.60;62.30;;;;;;4957541;28;20770;-74
2022/05/07 06:14:32;;;;;;;7.93;4.17;;;16.80;62.20;;;;;;4958063;28;20197;-74
2022/05/07 06:17:01;;;;;;;8.27;3.50;;;16.90;61.60;;;;;;4962337;28;20816;-74
2022/05/07 06:19:30;;;;;;;9.27;3.90;;;17.00;60.30;;;;;;4945875;28;20209;-75
2022/05/07 06:21:59;;;;;;;8.13;3.40;;;17.10;60.60;;;;;;4958946;28;20756;-74
2022/05/07 06:27:31;;;;;;;10.33;3.63;;;17.40;60.10;;;;;;4958020;28;20956;-74
2022/05/07 06:30:00;;;;;;;10.50;3.53;;;17.50;59.90;;;;;;4959475;28;20716;-75
2022/05/07 06:32:33;;;;;;;7.60;3.93;;;17.60;58.90;;;;;;4963365;28;20218;-74
2022/05/07 06:35:03;;;;;;;6.03;2.93;;;17.80;58.50;;;;;;4960819;28;20202;-75
2022/05/07 06:37:32;;;;;;;8.00;3.00;;;17.90;58.30;;;;;;4962084;28;20190;-74
2022/05/07 06:40:01;;;;;;;6.77;3.07;;;18.00;57.50;;;;;;4960619;28;20194;-74
2022/05/07 06:42:33;;;;;;;8.57;3.27;;;18.10;57.10;;;;;;4958503;28;20198;-74
2022/05/07 06:45:02;;;;;;;8.53;3.20;;;18.20;56.70;;;;;;4954011;28;20193;-75
2022/05/07 06:47:33;;;;;;;8.13;3.03;;;18.30;56.10;;;;;;4954870;28;20699;-75
2022/05/07 06:50:01;;;;;;;7.17;2.70;;;18.40;55.60;;;;;;4955712;28;20285;-75
2022/05/07 06:52:31;;;;;;;10.03;2.53;;;18.40;55.30;;;;;;4954741;28;20233;-75
2022/05/07 06:54:59;;;;;;;5.80;2.83;;;18.60;55.20;;;;;;4952345;28;20556;-75
2022/05/07 06:57:28;;;;;;;7.33;2.70;;;18.70;55.00;;;;;;4957268;28;20201;-74
2022/05/07 06:59:57;;;;;;;11.50;3.87;;;18.90;54.20;;;;;;4953738;28;20197;-75
2022/05/07 07:02:26;;;;;;;5.63;2.57;;;19.00;52.70;;;;;;4953186;28;20203;-76
2022/05/07 07:04:56;;;;;;;6.63;3.80;;;19.00;52.40;;;;;;4960746;28;20201;-75
2022/05/07 07:07:25;;;;;;;7.13;3.40;;;19.10;51.60;;;;;;4949437;28;20204;-76
2022/05/07 07:09:53;;;;;;;7.83;3.40;;;19.20;51.50;;;;;;4958393;28;20276;-76
2022/05/07 07:12:22;;;;;;;10.03;3.07;;;19.20;51.10;;;;;;4960984;28;20228;-76
2022/05/07 07:15:04;;;;;;;4.67;3.10;;;19.20;51.60;;;;;;4960818;28;20240;-76
2022/05/07 07:17:33;;;;;;;6.90;3.03;;;19.30;51.40;;;;;;4961413;28;20237;-76
2022/05/07 07:20:03;;;;;;;9.40;3.50;;;19.40;51.60;;;;;;4945232;28;20862;-75
2022/05/07 07:22:32;;;;;;;7.80;2.90;;;19.50;51.00;;;;;;4954846;28;20202;-75
2022/05/07 07:25:01;;;;;;;6.37;3.00;;;19.60;50.70;;;;;;4953548;28;20201;-75
2022/05/07 07:27:29;;;;;;;9.07;3.60;;;19.70;51.00;;;;;;4949373;28;20199;-74
2022/05/07 07:29:57;;;;;;;8.37;3.47;;;19.70;49.70;;;;;;4948114;28;20201;-75
2022/05/07 07:32:28;;;;;;;9.57;3.27;;;19.90;50.10;;;;;;4953670;28;20213;-75
2022/05/07 07:34:56;;;;;;;7.40;3.07;;;20.00;49.90;;;;;;4962052;28;20198;-75
2022/05/07 07:37:27;;;;;;;6.57;2.93;;;20.10;49.90;;;;;;4963399;28;20209;-75
2022/05/07 07:39:55;;;;;;;10.37;3.40;;;20.20;49.40;;;;;;4967002;28;20204;-74
2022/05/07 07:42:24;;;;;;;6.57;3.00;;;20.30;49.20;;;;;;4961267;28;20204;-77
2022/05/07 07:47:56;;;;;;;12.17;3.77;;;20.40;49.00;;;;;;4963164;28;20197;-74
2022/05/07 07:47:57;;;;;;;10.50;3.50;;;20.50;48.40;;;;;;4963485;28;20197;-75
2022/05/07 07:50:27;;;;;;;6.70;3.60;;;20.50;48.40;;;;;;4962083;28;20194;-75
2022/05/07 07:52:55;;;;;;;8.50;3.83;;;20.60;48.50;;;;;;4958306;28;20220;-76
2022/05/07 07:55:24;;;;;;;9.00;3.80;;;20.60;48.10;;;;;;4957512;28;20313;-75
2022/05/07 07:57:55;;;;;;;8.47;4.20;;;20.60;47.90;;;;;;4960153;28;20221;-75
2022/05/07 08:00:24;;;;;;;8.93;3.13;;;20.70;47.90;;;;;;4965497;28;20193;-75
2022/05/07 08:02:55;;;;;;;7.37;3.00;;;20.70;48.00;;;;;;4955008;28;20202;-74
2022/05/07 08:05:25;;;;;;;9.13;3.33;;;20.70;48.10;;;;;;4962788;28;20885;-77
2022/05/07 08:13:27;;;;;;;11.70;3.23;;;20.70;47.30;;;;;;4961812;28;20206;-76
2022/05/07 08:15:55;;;;;;;9.70;3.53;;;20.70;47.30;;;;;;4959345;28;20217;-75
2022/05/07 08:18:25;;;;;;;10.00;3.97;;;20.80;47.30;;;;;;4965535;28;20280;-75
2022/05/07 08:20:55;;;;;;;5.10;2.83;;;20.80;47.30;;;;;;4967346;28;20883;-75
2022/05/07 08:23:25;;;;;;;8.83;3.57;;;20.90;47.30;;;;;;4960781;28;20213;-76
2022/05/07 08:25:54;;;;;;;9.80;3.40;;;20.90;46.70;;;;;;4965533;28;20209;-76
2022/05/07 08:28:24;;;;;;;7.60;2.80;;;21.00;46.50;;;;;;4962562;28;20204;-74
2022/05/07 08:30:53;;;;;;;9.77;2.80;;;21.10;47.00;;;;;;4965713;28;20201;-75
2022/05/07 08:33:22;;;;;;;5.97;3.20;;;21.10;46.80;;;;;;4967100;28;20260;-74
2022/05/07 08:35:52;;;;;;;10.17;4.10;;;21.10;45.60;;;;;;4968011;28;20193;-74
2022/05/07 08:38:21;;;;;;;8.30;2.97;;;21.20;46.40;;;;;;4961849;28;20213;-74
2022/05/07 08:40:50;;;;;;;7.03;3.40;;;21.20;46.40;;;;;;4964994;28;20193;-74
2022/05/07 08:43:20;;;;;;;5.00;3.13;;;21.30;46.70;;;;;;4964347;28;20209;-74
2022/05/07 08:45:48;;;;;;;7.70;3.20;;;21.40;46.50;;;;;;4954866;28;20690;-75
2022/05/07 08:48:16;;;;;;;12.90;4.37;;;21.40;47.20;;;;;;4962766;28;20198;-76
2022/05/07 08:50:53;;;;;;;5.57;3.08;;;21.50;46.30;;;;;;4962499;28;20217;-75
2022/05/07 08:53:22;;;;;;;8.60;2.90;;;21.50;45.60;;;;;;4964809;28;20340;-75
2022/05/07 08:55:54;;;;;;;5.83;3.33;;;21.60;45.60;;;;;;4966040;28;20193;-76
2022/05/07 08:58:23;;;;;;;5.63;3.22;;;21.60;46.10;;;;;;4965891;28;20778;-75
2022/05/07 09:00:51;;;;;;;10.98;3.90;;;21.70;45.50;;;;;;4968190;28;20871;-76
2022/05/07 09:03:20;;;;;;;6.57;2.95;;;21.70;44.90;;;;;;4965411;28;20194;-74
2022/05/07 09:05:48;;;;;;;8.73;3.63;;;21.80;45.00;;;;;;4966725;28;20561;-74
2022/05/07 09:08:25;;;;;;;10.43;4.20;;;21.90;45.30;;;;;;4964075;28;20198;-76
2022/05/07 09:10:55;;;;;;;8.80;3.58;;;22.00;45.70;;;;;;4967472;28;20194;-75
2022/05/07 09:13:23;;;;;;;7.25;3.20;;;22.10;45.30;;;;;;4964167;28;21231;-75
2022/05/07 09:15:53;;;;;;;8.07;3.28;;;22.10;45.20;;;;;;4944124;28;20202;-77
2022/05/07 09:18:23;;;;;;;23.25;4.30;;;22.20;45.40;;;;;;4952773;28;20201;-73
2022/05/07 09:21:15;;;;;;;17.83;7.40;;;22.30;46.00;;;;;;4961611;28;20186;-75
2022/05/07 09:23:48;;;;;;;15.43;4.90;;;22.40;45.70;;;;;;4956744;28;20820;-75
2022/05/07 09:26:27;;;;;;;15.70;6.63;;;22.50;44.70;;;;;;4960689;28;20186;-75
2022/05/07 09:28:55;;;;;;;20.67;6.47;;;22.60;44.70;;;;;;4964971;28;20208;-76
2022/05/07 09:31:26;;;;;;;7.53;3.40;;;22.60;45.10;;;;;;4961422;28;20202;-77
2022/05/07 09:33:56;;;;;;;9.98;3.20;;;22.70;44.90;;;;;;4959412;28;20225;-75
2022/05/07 09:36:24;;;;;;;13.20;3.78;;;22.80;45.20;;;;;;4966143;28;20230;-76
2022/05/07 09:39:02;;;;;;;9.18;3.20;;;22.90;45.10;;;;;;4963799;28;20197;-75
2022/05/07 09:41:31;;;;;;;11.07;4.28;;;22.90;44.40;;;;;;4956763;28;20200;-76
2022/05/07 09:44:00;;;;;;;9.95;3.85;;;22.90;44.50;;;;;;4957780;28;20284;-74
2022/05/07 09:46:30;;;;;;;8.40;2.45;;;22.90;44.20;;;;;;4960409;28;20194;-73
2022/05/07 09:49:02;;;;;;;8.90;3.20;;;22.90;44.10;;;;;;4962511;28;20292;-75
2022/05/07 09:51:32;;;;;;;6.95;2.75;;;22.90;44.20;;;;;;4960852;28;20201;-74
2022/05/07 09:59:37;;;;;;;8.27;3.20;;;23.00;44.10;;;;;;4962372;28;20209;-74
2022/05/07 10:02:17;;;;;;;6.68;2.95;;;23.00;43.00;;;;;;4961886;28;20515;-75
2022/05/07 10:05:07;;;;;;;7.70;2.53;;;23.00;43.10;;;;;;4962286;28;20194;-74
2022/05/07 10:07:56;;;;;;;6.63;2.60;;;23.20;43.30;;;;;;4956708;28;20683;-75
2022/05/07 10:10:29;;;;;;;7.95;2.75;;;23.20;43.70;;;;;;4956467;28;20194;-75
2022/05/07 10:13:01;;;;;;;7.05;3.38;;;23.30;43.50;;;;;;4956896;28;20201;-75
2022/05/07 10:15:29;;;;;;;10.18;2.47;;;23.40;43.60;;;;;;4963753;28;20213;-76
2022/05/07 10:18:00;;;;;;;7.03;3.03;;;23.40;43.00;;;;;;4957369;28;20230;-75
2022/05/07 10:20:39;;;;;;;5.20;2.60;;;23.40;42.60;;;;;;4954141;28;20202;-74
2022/05/07 10:23:08;;;;;;;13.00;3.70;;;23.50;43.00;;;;;;4959525;28;20193;-75
2022/05/07 10:25:39;;;;;;;7.90;3.55;;;23.50;42.60;;;;;;4953179;28;20205;-74
2022/05/07 10:28:10;;;;;;;7.38;3.00;;;23.50;42.40;;;;;;4956322;28;20281;-75
2022/05/07 10:30:54;;;;;;;10.25;3.60;;;23.60;42.70;;;;;;4953554;28;20194;-74
2022/05/07 10:33:24;;;;;;;7.30;2.50;;;23.60;42.70;;;;;;4958580;28;20221;-75
2022/05/07 10:35:54;;;;;;;10.07;2.95;;;23.50;42.30;;;;;;4962396;28;20201;-75
2022/05/07 10:38:31;;;;;;;12.60;2.88;;;23.60;42.60;;;;;;4963754;28;20189;-75
2022/05/07 10:41:04;;;;;;;6.97;3.08;;;23.60;42.60;;;;;;4963951;28;20204;-74
2022/05/07 10:43:34;;;;;;;6.88;3.03;;;23.60;42.50;;;;;;4960782;28;20216;-76
2022/05/07 10:46:04;;;;;;;12.40;2.53;;;23.60;42.60;;;;;;4964689;28;20225;-74
2022/05/07 10:48:45;;;;;;;6.18;2.22;;;23.60;42.10;;;;;;4955590;28;20268;-74
2022/05/07 10:51:20;;;;;;;5.43;2.53;;;23.70;42.30;;;;;;4959851;28;20877;-74
2022/05/07 10:53:50;;;;;;;6.47;3.50;;;23.70;41.70;;;;;;4963069;28;20247;-74
2022/05/07 10:56:21;;;;;;;6.45;2.90;;;23.80;41.80;;;;;;4964777;28;20194;-75
2022/05/07 10:58:52;;;;;;;7.75;3.38;;;23.80;41.80;;;;;;4964103;28;20198;-75
2022/05/07 11:01:22;;;;;;;7.60;2.90;;;23.90;41.40;;;;;;4961382;28;20208;-74
2022/05/07 11:04:03;;;;;;;8.88;3.38;;;23.90;41.30;;;;;;4961981;28;20201;-75
2022/05/07 11:06:32;;;;;;;6.57;2.60;;;23.90;41.10;;;;;;4958190;28;20288;-75
2022/05/07 11:09:00;;;;;;;5.07;2.22;;;23.90;41.20;;;;;;4949971;28;20202;-75
2022/05/07 11:11:32;;;;;;;6.20;2.65;;;23.90;40.40;;;;;;4963103;28;20189;-74
2022/05/07 11:14:01;;;;;;;7.97;3.28;;;23.80;40.70;;;;;;4959772;28;20229;-74
2022/05/07 11:16:29;;;;;;;10.43;3.22;;;23.80;40.90;;;;;;4958940;28;20230;-74
2022/05/07 11:18:58;;;;;;;9.02;3.10;;;23.80;41.40;;;;;;4957348;28;20208;-75
2022/05/07 11:21:27;;;;;;;6.45;3.65;;;23.80;41.50;;;;;;4961983;28;20189;-75
2022/05/07 11:23:56;;;;;;;7.35;2.92;;;23.80;42.00;;;;;;4954243;28;20201;-74
2022/05/07 11:26:24;;;;;;;5.22;2.75;;;23.90;42.60;;;;;;4953649;28;20777;-75
2022/05/07 11:28:55;;;;;;;6.85;3.35;;;23.90;42.40;;;;;;4963129;28;20217;-75
2022/05/07 11:31:30;;;;;;;6.40;2.83;;;23.90;43.20;;;;;;4965975;28;20190;-75
2022/05/07 11:34:03;;;;;;;7.82;3.15;;;23.90;42.10;;;;;;4952728;28;20193;-77
2022/05/07 11:36:31;;;;;;;5.53;3.08;;;24.00;42.30;;;;;;4951405;28;20278;-75
2022/05/07 11:39:00;;;;;;;6.25;2.92;;;24.00;42.40;;;;;;4957941;28;20193;-75
2022/05/07 11:41:29;;;;;;;7.03;3.17;;;24.10;42.80;;;;;;4966224;28;20200;-75
2022/05/07 11:47:29;;;;;;;5.47;3.20;;;24.10;42.20;;;;;;4963101;28;20268;-74
2022/05/07 11:50:04;;;;;;;6.22;3.03;;;24.10;42.40;;;;;;4965135;28;20197;-74
2022/05/07 11:52:34;;;;;;;7.65;3.90;;;24.10;42.00;;;;;;4963791;28;20205;-74
2022/05/07 11:55:07;;;;;;;6.18;3.25;;;24.20;42.20;;;;;;4958188;28;20992;-74
2022/05/07 11:57:36;;;;;;;5.72;3.22;;;24.20;42.50;;;;;;4964741;28;20198;-74
2022/05/07 12:00:21;;;;;;;6.25;2.88;;;24.30;42.60;;;;;;4962463;28;20229;-73
2022/05/07 12:02:53;;;;;;;10.25;2.97;;;24.30;42.50;;;;;;4957487;28;20283;-74
2022/05/07 12:05:22;;;;;;;6.57;3.13;;;24.30;42.60;;;;;;4956142;28;20198;-74
2022/05/07 12:07:53;;;;;;;9.50;3.60;;;24.30;42.40;;;;;;4962575;28;20202;-72
2022/05/07 12:10:22;;;;;;;7.78;3.10;;;24.30;42.10;;;;;;4964803;28;20208;-72
2022/05/07 12:12:51;;;;;;;8.95;3.53;;;24.30;42.00;;;;;;4966019;28;20202;-74
2022/05/07 12:17:52;;;;;;;11.90;3.45;;;24.30;42.30;;;;;;4962103;28;20593;-74
2022/05/07 12:18:09;;;;;;;10.77;3.63;;;24.30;42.10;;;;;;4964693;28;20201;-72
2022/05/07 12:20:37;;;;;;;9.60;3.40;;;24.30;42.20;;;;;;4965910;28;20206;-73
2022/05/07 12:31:25;;;;;;;8.20;3.08;;;24.30;42.30;;;;;;4963394;28;20194;-74
2022/05/07 12:33:54;;;;;;;12.07;3.88;;;24.20;42.60;;;;;;4963492;28;20197;-74
2022/05/07 12:36:22;;;;;;;8.15;3.10;;;24.20;42.60;;;;;;4952225;28;20237;-75
2022/05/07 12:38:51;;;;;;;9.57;4.57;;;24.30;42.80;;;;;;4959705;28;20569;-73
2022/05/07 12:41:20;;;;;;;7.80;3.50;;;24.30;43.00;;;;;;4965161;28;20928;-73
2022/05/07 12:43:48;;;;;;;8.25;3.55;;;24.30;42.80;;;;;;4955705;28;20277;-72
2022/05/07 12:46:17;;;;;;;9.20;3.60;;;24.30;42.90;;;;;;4959412;28;20454;-74
2022/05/07 12:48:47;;;;;;;6.97;3.72;;;24.50;43.40;;;;;;4963115;28;20285;-73
2022/05/07 12:51:15;;;;;;;7.32;3.13;;;24.50;42.90;;;;;;4962236;28;20194;-72
2022/05/07 12:53:44;;;;;;;9.18;3.80;;;24.60;43.40;;;;;;4958348;28;20213;-74
2022/05/07 12:56:13;;;;;;;9.20;2.95;;;24.60;43.50;;;;;;4961251;28;20232;-75
2022/05/07 12:58:41;;;;;;;11.45;3.47;;;24.70;43.50;;;;;;4954132;28;20203;-73
2022/05/07 13:01:11;;;;;;;7.50;3.35;;;24.70;43.10;;;;;;4956949;28;20656;-72
2022/05/07 13:03:40;;;;;;;7.03;2.58;;;24.80;43.30;;;;;;4961470;28;20186;-74
2022/05/07 13:06:10;;;;;;;8.93;2.63;;;24.90;43.50;;;;;;4955568;28;20209;-73
2022/05/07 13:08:38;;;;;;;10.77;2.92;;;24.90;42.90;;;;;;4950704;28;20190;-73
2022/05/07 13:11:06;;;;;;;4.35;2.53;;;25.00;43.40;;;;;;4956360;28;20727;-73
2022/05/07 13:13:35;;;;;;;6.15;2.78;;;25.00;43.10;;;;;;4962569;28;20193;-73
2022/05/07 13:16:03;;;;;;;6.70;2.97;;;25.00;42.90;;;;;;4958130;28;20237;-73
2022/05/07 13:18:32;;;;;;;12.70;3.25;;;25.10;43.10;;;;;;4961246;28;20187;-73
2022/05/07 13:21:00;;;;;;;6.68;2.38;;;25.10;42.60;;;;;;4958767;28;20205;-73
2022/05/07 13:23:32;;;;;;;4.50;2.65;;;25.10;42.70;;;;;;4958967;28;20663;-73
2022/05/07 13:26:00;;;;;;;6.07;2.20;;;25.20;42.60;;;;;;4954774;28;20714;-74
2022/05/07 13:28:28;;;;;;;18.08;2.75;;;25.20;42.40;;;;;;4960866;28;20613;-74
2022/05/07 13:30:58;;;;;;;5.80;2.08;;;25.20;42.20;;;;;;4962106;28;20198;-74
2022/05/07 13:33:27;;;;;;;5.30;1.60;;;25.30;42.10;;;;;;4962328;28;20202;-73